Time;durP1;ratioP1;P1;durP2;ratioP2;P2;SDS_P1;SDS_P2;PMS_P1;PMS_P2;Temp;Humidity;BMP_temperature;BMP_pressure;BME280_temperature;BME280_humidity;BME280_pressure;Samples;Min_cycle;Max_cycle;Signal;HPM_P1;HPM_P2
2021/11/17 02:26:43;;;;;;;44.33;23.00;;;;;;;6.17;78.41;100345.28;5115311;28;20490;-62
2021/11/17 02:30:00;;;;;;;41.55;22.58;;;;;;;6.17;78.73;100345.28;5067417;28;20039;-62
2021/11/17 02:32:43;;;;;;;44.03;23.25;;;;;;;6.14;78.53;100335.75;5068663;28;20047;-62
2021/11/17 02:35:41;;;;;;;53.75;24.10;;;;;;;6.15;78.87;100337.50;5097589;28;20057;-64
2021/11/17 02:38:24;;;;;;;45.00;25.05;;;;;;;6.12;78.71;100332.25;5115358;28;20039;-62
2021/11/17 02:41:24;;;;;;;40.50;22.65;;;;;;;6.13;78.89;100326.28;5080251;28;20046;-62
2021/11/17 02:44:24;;;;;;;49.63;22.85;;;;;;;6.15;78.96;100336.66;5077616;28;20055;-63
2021/11/17 02:47:01;;;;;;;43.58;22.92;;;;;;;6.15;78.37;100326.34;5052515;28;20051;-62
2021/11/17 02:49:48;;;;;;;41.65;23.60;;;;;;;6.15;78.82;100321.22;5080121;28;20088;-62
2021/11/17 02:52:48;;;;;;;40.53;22.45;;;;;;;6.14;78.59;100317.75;5097676;28;20085;-63
2021/11/17 02:55:22;;;;;;;44.75;24.33;;;;;;;6.13;79.17;100318.56;5114885;28;20149;-62
2021/11/17 02:57:55;;;;;;;;;;;;;;;6.13;78.32;100315.97;5079903;28;20043;-62
2021/11/17 03:00:58;;;;;;;42.90;23.52;;;;;;;6.13;78.99;100312.56;5113725;28;19970;-62
2021/11/17 03:03:54;;;;;;;47.03;25.55;;;;;;;6.11;78.69;100304.75;5062875;28;20180;-62
2021/11/17 03:06:29;;;;;;;43.35;24.15;;;;;;;6.11;78.69;100311.59;5096960;28;20050;-63
2021/11/17 03:09:03;;;;;;;45.00;24.55;;;;;;;6.11;78.45;100315.03;5079431;28;20096;-62
2021/11/17 03:11:47;;;;;;;44.70;22.40;;;;;;;6.11;79.18;100320.19;5080043;28;20490;-62
2021/11/17 03:14:47;;;;;;;44.67;24.40;;;;;;;6.12;78.81;100328.81;5079489;28;20040;-62
2021/11/17 03:17:43;;;;;;;43.03;23.83;;;;;;;6.13;78.52;100320.28;5114403;28;20093;-62
2021/11/17 03:20:37;;;;;;;47.72;25.77;;;;;;;6.13;78.82;100315.97;5082308;28;20034;-62
2021/11/17 03:23:31;;;;;;;51.42;26.60;;;;;;;6.14;78.91;100328.03;5096684;28;20027;-62
2021/11/17 03:26:14;;;;;;;50.33;25.25;;;;;;;6.12;78.40;100336.53;5082007;28;20115;-63
2021/11/17 03:29:04;;;;;;;49.78;25.83;;;;;;;6.13;78.86;100336.56;5097006;28;20035;-62
2021/11/17 03:31:58;;;;;;;46.17;25.30;;;;;;;6.13;78.44;100321.13;5114351;28;20044;-62
2021/11/17 03:34:38;;;;;;;46.20;23.85;;;;;;;6.12;78.44;100329.66;5114191;28;20051;-63
2021/11/17 03:37:19;;;;;;;51.20;27.73;;;;;;;6.14;78.77;100332.31;5114145;28;20114;-61
2021/11/17 03:40:09;;;;;;;48.20;24.25;;;;;;;6.13;78.80;100343.44;5079738;28;20031;-63
2021/11/17 03:43:10;;;;;;;46.28;25.02;;;;;;;6.14;79.05;100340.03;5098682;28;20038;-63
2021/11/17 03:46:01;;;;;;;47.20;24.25;;;;;;;6.12;78.85;100345.13;5062252;28;20047;-62
2021/11/17 03:48:51;;;;;;;54.40;23.90;;;;;;;6.12;78.55;100357.13;5079592;28;20394;-62
2021/11/17 03:51:49;;;;;;;49.85;23.95;;;;;;;6.12;78.45;100357.13;5063231;28;20410;-63
2021/11/17 03:54:46;;;;;;;46.83;23.73;;;;;;;6.13;78.85;100356.31;5130060;27;20037;-62
2021/11/17 03:57:27;;;;;;;47.85;23.48;;;;;;;6.13;78.53;100362.31;5082144;28;20122;-63
2021/11/17 04:00:11;;;;;;;39.65;23.08;;;;;;;6.14;78.94;100363.22;5096095;28;20368;-63
2021/11/17 04:03:09;;;;;;;42.90;22.88;;;;;;;6.15;78.69;100362.38;5079084;28;20036;-62
2021/11/17 04:05:52;;;;;;;43.55;22.35;;;;;;;6.14;78.62;100369.22;5113870;28;20035;-62
2021/11/17 04:08:45;;;;;;;39.90;22.50;;;;;;;6.14;78.47;100369.22;5079666;28;20043;-62
2021/11/17 04:11:51;;;;;;;44.88;22.45;;;;;;;6.14;78.39;100358.91;5096108;28;20028;-62
2021/11/17 04:14:31;;;;;;;38.17;21.20;;;;;;;6.13;78.91;100358.88;5048023;28;20044;-63
2021/11/17 04:17:36;;;;;;;41.90;22.48;;;;;;;6.11;78.60;100352.78;5078941;28;20108;-62
2021/11/17 04:20:15;;;;;;;44.38;21.70;;;;;;;6.11;78.58;100353.66;5081694;28;20147;-62
2021/11/17 04:23:10;;;;;;;42.47;21.02;;;;;;;6.13;78.66;100369.16;5096035;28;20430;-62
2021/11/17 04:25:47;;;;;;;39.60;22.50;;;;;;;6.13;78.74;100377.75;5078875;28;20106;-63
2021/11/17 04:28:30;;;;;;;51.83;22.42;;;;;;;6.15;78.58;100375.25;5078619;28;20058;-63
2021/11/17 04:31:40;;;;;;;39.88;19.00;;;;;;;6.15;78.66;100368.41;5078622;28;20035;-62
2021/11/17 04:34:50;;;;;;;42.22;21.95;;;;;;;6.14;78.54;100356.34;5078412;28;20023;-62
2021/11/17 04:37:34;;;;;;;45.33;21.63;;;;;;;6.15;79.06;100372.69;5048795;28;20143;-62
2021/11/17 04:40:40;;;;;;;39.42;20.85;;;;;;;6.15;78.71;100376.13;5079112;28;20035;-62
2021/11/17 04:43:20;;;;;;;41.38;22.05;;;;;;;6.15;79.15;100383.84;5060225;28;20058;-62
2021/11/17 04:45:57;;;;;;;37.97;20.55;;;;;;;6.16;78.93;100372.72;5099137;28;20035;-62
2021/11/17 04:48:25;;;;;;;44.08;19.95;;;;;;;6.15;78.87;100376.13;5099541;28;20067;-62
2021/11/17 04:51:08;;;;;;;48.95;23.98;;;;;;;6.16;78.56;100379.56;5099171;28;20042;-62
2021/11/17 04:53:55;;;;;;;43.40;20.67;;;;;;;6.16;78.86;100371.84;5081914;28;20047;-62
2021/11/17 04:56:52;;;;;;;40.35;22.48;;;;;;;6.15;78.91;100375.25;5066065;28;20036;-62
2021/11/17 04:59:41;;;;;;;42.67;21.10;;;;;;;6.14;79.00;100371.78;5099074;28;20047;-62
2021/11/17 05:02:36;;;;;;;47.42;20.58;;;;;;;6.15;79.25;100381.25;5081926;28;20036;-62
2021/11/17 05:05:12;;;;;;;45.90;22.45;;;;;;;6.15;78.75;100370.97;5081918;28;20069;-62
2021/11/17 05:08:10;;;;;;;39.75;21.52;;;;;;;6.16;79.06;100379.56;5098519;28;20043;-62
2021/11/17 05:11:30;;;;;;;43.65;22.27;;;;;;;6.14;78.95;100369.22;5094507;28;20050;-61
2021/11/17 05:14:16;;;;;;;42.17;20.17;;;;;;;6.14;78.64;100369.22;5037645;28;20041;-62
2021/11/17 05:16:50;;;;;;;39.35;21.92;;;;;;;6.13;79.19;100366.59;5098887;28;20036;-62
2021/11/17 05:19:44;;;;;;;43.95;20.10;;;;;;;6.14;79.03;100364.06;5064839;28;20126;-62
2021/11/17 05:22:31;;;;;;;38.33;20.48;;;;;;;6.15;79.16;100346.94;5082086;28;20040;-62
2021/11/17 05:25:20;;;;;;;40.95;20.70;;;;;;;6.13;79.16;100336.56;5099103;28;20047;-63
2021/11/17 05:28:12;;;;;;;36.85;20.17;;;;;;;6.11;79.04;100338.22;5098747;28;20035;-62
2021/11/17 05:30:50;;;;;;;39.65;20.60;;;;;;;6.12;78.81;100341.69;5087359;28;20044;-62
2021/11/17 05:33:45;;;;;;;39.78;21.05;;;;;;;6.11;78.82;100345.94;5098552;28;20027;-62
2021/11/17 05:36:34;;;;;;;35.30;19.85;;;;;;;6.13;78.80;100351.16;5084235;28;20126;-63
2021/11/17 05:39:39;;;;;;;41.15;20.85;;;;;;;6.13;79.07;100364.03;5064773;28;20035;-63
2021/11/17 05:42:07;;;;;;;39.90;20.27;;;;;;;6.13;79.05;100359.75;5098624;28;20077;-62
2021/11/17 05:44:49;;;;;;;33.03;18.30;;;;;;;6.14;78.89;100366.63;5098700;28;20081;-62
2021/11/17 05:47:48;;;;;;;37.88;19.40;;;;;;;6.13;78.66;100358.88;5081285;28;20075;-62
2021/11/17 05:50:30;;;;;;;38.38;18.30;;;;;;;6.13;78.70;100352.00;5084363;28;20039;-63
2021/11/17 05:53:13;;;;;;;36.05;17.98;;;;;;;6.14;79.07;100342.63;5065197;28;20036;-62
2021/11/17 05:55:56;;;;;;;35.05;19.38;;;;;;;6.15;79.00;100352.09;5064780;28;20027;-62
2021/11/17 05:58:34;;;;;;;33.53;19.67;;;;;;;6.14;78.86;100346.06;5080668;28;20048;-63
2021/11/17 06:01:13;;;;;;;43.38;19.88;;;;;;;6.16;79.03;100340.94;5080501;28;20035;-62
2021/11/17 06:04:01;;;;;;;39.85;20.27;;;;;;;6.15;78.85;100339.22;5098358;28;20089;-62
2021/11/17 06:06:35;;;;;;;37.53;18.52;;;;;;;6.15;78.93;100334.94;5080737;28;20048;-62
2021/11/17 06:09:01;;;;;;;34.80;18.50;;;;;;;6.16;79.10;100336.69;5081285;28;20380;-62
2021/11/17 06:11:42;;;;;;;34.67;17.85;;;;;;;6.18;79.06;100336.75;5115510;28;20039;-63
2021/11/17 06:14:27;;;;;;;35.08;19.42;;;;;;;6.18;78.82;100323.88;5115968;28;20040;-62
2021/11/17 06:17:18;;;;;;;33.63;18.55;;;;;;;6.17;78.85;100329.84;5097759;28;20031;-62
2021/11/17 06:20:02;;;;;;;32.92;17.48;;;;;;;6.17;79.10;100319.53;5131594;27;20036;-62
2021/11/17 06:22:43;;;;;;;34.13;17.77;;;;;;;6.17;78.83;100315.28;5096648;28;20060;-62
2021/11/17 06:25:19;;;;;;;38.05;20.13;;;;;;;6.17;78.90;100309.25;5097262;28;20093;-62
2021/11/17 06:27:53;;;;;;;32.47;18.90;;;;;;;6.16;79.26;100310.97;5097507;28;20475;-62
2021/11/17 06:30:26;;;;;;;32.05;18.52;;;;;;;6.16;78.93;100318.69;5080385;28;20511;-63
2021/11/17 06:32:57;;;;;;;31.65;18.15;;;;;;;6.17;78.60;100319.53;5131131;27;20372;-62
2021/11/17 06:35:29;;;;;;;33.85;18.65;;;;;;;6.17;79.00;100324.69;5096496;28;20114;-63
2021/11/17 06:38:07;;;;;;;32.70;18.33;;;;;;;6.18;79.03;100334.16;5115079;28;20039;-63
2021/11/17 06:40:47;;;;;;;34.35;16.92;;;;;;;6.17;78.68;100341.03;5115437;28;20043;-62
2021/11/17 06:43:24;;;;;;;33.63;19.50;;;;;;;6.18;79.03;100344.47;5080293;28;20031;-62
2021/11/17 06:45:55;;;;;;;35.40;20.02;;;;;;;6.19;79.29;100341.06;5097047;28;20122;-62
2021/11/17 06:48:23;;;;;;;37.20;18.88;;;;;;;6.18;79.18;100332.50;5114903;28;20359;-63
2021/11/17 06:50:55;;;;;;;32.92;19.73;;;;;;;6.18;79.09;100345.38;5079765;28;20044;-62
2021/11/17 06:53:26;;;;;;;33.85;19.85;;;;;;;6.19;78.95;100348.78;5080368;28;20122;-63
2021/11/17 06:55:55;;;;;;;31.33;17.75;;;;;;;6.19;79.35;100346.22;5096725;28;20383;-62
2021/11/17 06:58:22;;;;;;;32.20;17.63;;;;;;;6.20;79.11;100355.69;5096407;28;20536;-62
2021/11/17 07:00:51;;;;;;;29.30;16.45;;;;;;;6.19;79.18;100357.41;5079566;28;20039;-63
2021/11/17 07:03:24;;;;;;;31.77;18.23;;;;;;;6.20;79.19;100363.41;5079629;28;20135;-62
2021/11/17 07:05:53;;;;;;;32.33;17.58;;;;;;;6.21;79.31;100366.06;5079906;28;20039;-62
2021/11/17 07:08:25;;;;;;;28.92;16.63;;;;;;;6.20;79.03;100366.91;5114290;28;20486;-62
2021/11/17 07:10:58;;;;;;;32.78;17.80;;;;;;;6.21;78.95;100376.38;5079742;28;20039;-63
2021/11/17 07:13:31;;;;;;;33.63;19.17;;;;;;;6.22;78.80;100372.09;5114566;28;20036;-62
2021/11/17 07:16:03;;;;;;;33.63;18.60;;;;;;;6.22;78.80;100379.81;5096771;28;20158;-63
2021/11/17 07:18:33;;;;;;;30.73;17.60;;;;;;;6.22;79.03;100383.28;5096476;28;20032;-62
2021/11/17 07:21:05;;;;;;;32.13;17.52;;;;;;;6.23;78.93;100389.28;5096446;28;20103;-63
2021/11/17 07:23:32;;;;;;;33.33;18.88;;;;;;;6.23;79.31;100390.16;5114453;28;20055;-63
2021/11/17 07:26:09;;;;;;;32.38;18.83;;;;;;;6.23;79.44;100389.28;5114245;28;20043;-62
2021/11/17 07:28:39;;;;;;;29.50;18.05;;;;;;;6.23;79.25;100389.28;5114811;28;20046;-62
2021/11/17 07:31:13;;;;;;;31.42;17.48;;;;;;;6.23;79.20;100395.31;5079737;28;20094;-62
2021/11/17 07:33:44;;;;;;;42.25;20.50;;;;;;;6.24;79.04;100402.22;5114430;28;20032;-62
2021/11/17 07:36:20;;;;;;;29.20;17.25;;;;;;;6.25;78.97;100405.69;5079005;28;20039;-62
2021/11/17 07:38:54;;;;;;;36.47;17.98;;;;;;;6.27;79.34;100400.56;5079472;28;20038;-62
2021/11/17 07:41:29;;;;;;;29.35;16.95;;;;;;;6.27;79.34;100400.56;5095268;28;20427;-63
2021/11/17 07:43:58;;;;;;;30.33;16.30;;;;;;;6.25;79.29;100406.53;5079529;28;20035;-64
2021/11/17 07:46:23;;;;;;;34.53;18.02;;;;;;;6.28;79.14;100410.06;5079011;28;20039;-64
2021/11/17 07:48:51;;;;;;;34.20;18.63;;;;;;;6.26;79.22;100402.28;5114035;28;20028;-64
2021/11/17 07:51:23;;;;;;;33.55;18.13;;;;;;;6.26;78.97;100407.44;5079352;28;20035;-63
2021/11/17 07:53:50;;;;;;;37.55;18.55;;;;;;;6.27;79.03;100406.63;5095563;28;20039;-63
2021/11/17 07:57:06;;;;;;;34.53;19.13;;;;;;;6.28;79.63;100418.69;5132014;27;20143;-63
2021/11/17 07:59:35;;;;;;;40.58;20.55;;;;;;;6.27;79.53;100414.34;5096463;28;20035;-63
2021/11/17 08:02:10;;;;;;;34.05;17.20;;;;;;;6.28;79.44;100428.06;5096460;28;20372;-64
2021/11/17 08:04:41;;;;;;;37.03;18.65;;;;;;;6.28;79.44;100417.78;5113934;28;20134;-64
2021/11/17 08:07:13;;;;;;;43.75;21.63;;;;;;;6.29;79.10;100423.00;5096970;28;20043;-63
2021/11/17 08:09:41;;;;;;;40.47;19.90;;;;;;;6.30;79.63;100426.44;5147947;27;20049;-64
2021/11/17 08:12:07;;;;;;;38.00;19.13;;;;;;;6.29;79.20;100420.44;5130324;28;20035;-63
2021/11/17 08:14:35;;;;;;;40.45;18.80;;;;;;;6.29;79.63;100430.72;5131840;28;20031;-64
2021/11/17 08:17:01;;;;;;;38.60;20.05;;;;;;;6.31;79.56;100425.63;5113238;28;20494;-64
2021/11/17 08:19:27;;;;;;;39.10;20.33;;;;;;;6.29;79.16;100432.41;5113412;28;20042;-64
2021/11/17 08:21:53;;;;;;;41.35;20.08;;;;;;;6.29;79.18;100428.16;5131496;28;20097;-64
2021/11/17 08:24:19;;;;;;;37.38;20.08;;;;;;;6.29;79.19;100423.00;5113171;28;20117;-64
2021/11/17 08:26:44;;;;;;;41.53;21.15;;;;;;;6.32;79.14;100422.25;5113076;28;20410;-64
2021/11/17 08:29:10;;;;;;;50.95;22.02;;;;;;;6.32;79.45;100433.41;5131253;28;20031;-64
2021/11/17 08:31:37;;;;;;;44.00;21.50;;;;;;;6.32;79.14;100424.81;5131753;28;20047;-64
2021/11/17 08:34:06;;;;;;;43.00;21.88;;;;;;;6.32;79.34;100429.97;5095975;28;20111;-64
2021/11/17 08:36:32;;;;;;;40.00;21.38;;;;;;;6.31;79.26;100433.34;5096003;28;20023;-64
2021/11/17 08:38:57;;;;;;;45.65;21.17;;;;;;;6.34;79.70;100441.19;5131127;28;20042;-63
2021/11/17 08:41:25;;;;;;;46.35;23.33;;;;;;;6.33;79.28;100442.88;5113248;28;20120;-64
2021/11/17 08:43:51;;;;;;;39.75;22.08;;;;;;;6.34;79.27;100439.50;5112557;28;20036;-64
2021/11/17 08:46:18;;;;;;;46.25;24.35;;;;;;;6.34;79.54;100434.34;5112732;28;20498;-64
2021/11/17 08:48:44;;;;;;;42.50;20.77;;;;;;;6.35;79.72;100430.09;5095637;28;20036;-64
2021/11/17 08:51:17;;;;;;;40.13;21.77;;;;;;;6.37;79.53;100433.59;5112401;28;20092;-64
2021/11/17 08:53:45;;;;;;;37.47;21.30;;;;;;;6.36;79.38;100434.41;5112602;28;20053;-64
2021/11/17 08:56:11;;;;;;;34.30;19.80;;;;;;;6.35;79.62;100430.94;5095262;28;20101;-64
2021/11/17 08:58:39;;;;;;;38.17;21.02;;;;;;;6.38;79.69;100443.09;5112737;28;20035;-64
2021/11/17 09:01:06;;;;;;;40.38;19.88;;;;;;;6.39;79.93;100442.25;5095696;28;20081;-64
2021/11/17 09:03:32;;;;;;;38.17;19.45;;;;;;;6.39;79.79;100448.28;5095296;28;20035;-64
2021/11/17 09:06:00;;;;;;;43.00;21.35;;;;;;;6.40;79.69;100447.47;5112403;28;20046;-64
2021/11/17 09:08:28;;;;;;;43.38;21.10;;;;;;;6.40;79.71;100452.63;5081655;28;20035;-64
2021/11/17 09:10:58;;;;;;;42.83;21.38;;;;;;;6.42;79.88;100454.38;5082008;28;20088;-64
2021/11/17 09:13:23;;;;;;;36.55;20.38;;;;;;;6.42;79.89;100447.50;5081571;28;20494;-64
2021/11/17 09:15:53;;;;;;;35.60;18.88;;;;;;;6.43;79.84;100448.41;5116530;28;20024;-63
2021/11/17 09:18:22;;;;;;;34.83;19.00;;;;;;;6.44;79.57;100450.16;5098439;28;20051;-64
2021/11/17 09:20:48;;;;;;;43.45;19.10;;;;;;;6.45;79.48;100446.78;5115228;28;20032;-64
2021/11/17 09:23:15;;;;;;;39.30;19.38;;;;;;;6.45;79.82;100457.06;5081381;28;20036;-64
2021/11/17 09:25:40;;;;;;;37.22;18.80;;;;;;;6.46;79.75;100453.69;5081788;28;20122;-63
2021/11/17 09:28:07;;;;;;;36.05;18.92;;;;;;;6.46;79.40;100451.13;5098303;28;20108;-64
2021/11/17 09:30:35;;;;;;;35.35;18.75;;;;;;;6.47;79.93;100453.75;5098385;28;20032;-64
2021/11/17 09:33:05;;;;;;;40.53;19.65;;;;;;;6.48;79.75;100459.75;5098346;28;20436;-64
2021/11/17 09:35:33;;;;;;;33.83;18.52;;;;;;;6.47;79.55;100458.88;5081086;28;20032;-64
2021/11/17 09:38:01;;;;;;;36.83;17.83;;;;;;;6.50;79.92;100468.41;5081076;28;20509;-64
2021/11/17 09:40:38;;;;;;;33.22;16.88;;;;;;;6.50;79.68;100465.84;5115016;27;20038;-64
2021/11/17 09:43:06;;;;;;;33.35;16.83;;;;;;;6.51;79.55;100475.31;5098377;28;20093;-64
2021/11/17 09:45:33;;;;;;;30.50;16.98;;;;;;;6.53;79.56;100478.84;5081293;28;20122;-64
2021/11/17 09:48:00;;;;;;;33.65;16.70;;;;;;;6.52;79.55;100475.41;5080856;28;20050;-65
2021/11/17 09:50:50;;;;;;;30.92;16.63;;;;;;;6.54;79.53;100472.88;5081312;28;20069;-64
2021/11/17 09:53:24;;;;;;;52.78;18.08;;;;;;;6.54;79.56;100472.88;5116113;28;20035;-63
2021/11/17 09:56:02;;;;;;;;;;;;;;;6.54;79.92;100481.47;5098151;28;20052;-64
2021/11/17 09:58:50;;;;;;;43.92;16.95;;;;;;;6.55;79.80;100478.06;5097862;28;19916;-64
2021/11/17 10:01:21;;;;;;;54.58;18.92;;;;;;;6.55;79.89;100480.66;5098101;28;20039;-64
2021/11/17 10:03:52;;;;;;;48.47;17.02;;;;;;;6.59;79.99;100480.78;5080540;28;20047;-64
2021/11/17 10:15:15;;;;;;;46.20;18.45;;;;;;;6.62;79.81;100486.91;5073005;28;20071;-64
2021/11/17 10:17:51;;;;;;;34.25;18.90;;;;;;;6.65;79.84;100497.34;5056634;28;20042;-64
2021/11/17 10:20:26;;;;;;;34.05;19.48;;;;;;;6.66;79.81;100504.25;5097790;28;20487;-64
2021/11/17 10:23:21;;;;;;;35.00;19.17;;;;;;;6.67;80.00;100498.28;5097462;28;20051;-64
2021/11/17 10:26:02;;;;;;;34.83;16.92;;;;;;;6.67;79.85;100506.03;5115359;28;20040;-64
2021/11/17 10:28:32;;;;;;;34.80;17.30;;;;;;;6.69;80.05;100504.38;5115364;28;20047;-64
2021/11/17 10:31:18;;;;;;;35.38;18.02;;;;;;;6.69;79.89;100506.97;5080189;28;20440;-64
2021/11/17 10:34:14;;;;;;;35.45;17.40;;;;;;;6.70;79.68;100507.81;5096329;28;20047;-64
2021/11/17 10:37:07;;;;;;;31.40;16.67;;;;;;;6.70;79.74;100518.13;5097559;28;20067;-64
2021/11/17 10:39:47;;;;;;;41.30;17.10;;;;;;;6.70;79.64;100515.56;5079877;28;20570;-64
2021/11/17 10:42:22;;;;;;;30.50;16.10;;;;;;;6.69;79.94;100509.53;5115173;28;20078;-64
2021/11/17 10:44:59;;;;;;;32.17;17.38;;;;;;;6.70;79.73;100513.88;5097038;28;20031;-64
2021/11/17 10:47:28;;;;;;;34.00;16.92;;;;;;;6.74;80.23;100517.44;5080418;28;20134;-64
2021/11/17 10:50:14;;;;;;;28.42;16.58;;;;;;;6.75;80.17;100518.34;5114923;28;20036;-64
2021/11/17 10:53:10;;;;;;;30.77;16.60;;;;;;;6.77;80.13;100522.72;5079691;28;20509;-64
2021/11/17 10:55:42;;;;;;;41.10;17.80;;;;;;;6.78;80.16;100521.00;5088735;28;20587;-64
2021/11/17 10:58:18;;;;;;;34.03;17.75;;;;;;;6.78;79.79;100515.84;5096671;28;20036;-64
2021/11/17 11:01:00;;;;;;;38.17;17.23;;;;;;;6.79;79.83;100512.47;5114597;28;20036;-64
2021/11/17 11:03:41;;;;;;;31.92;16.02;;;;;;;6.79;80.01;100509.88;5096578;28;20027;-64
2021/11/17 11:06:49;;;;;;;35.08;17.05;;;;;;;6.79;80.02;100512.47;5097318;28;20043;-64
2021/11/17 11:09:31;;;;;;;39.13;17.48;;;;;;;6.80;80.34;100507.38;5130536;27;20032;-65
2021/11/17 11:12:00;;;;;;;35.05;17.13;;;;;;;6.81;79.98;100504.00;5096744;28;20101;-65
2021/11/17 11:14:40;;;;;;;34.67;17.17;;;;;;;6.82;80.44;100507.44;5096769;28;20092;-64
2021/11/17 11:17:30;;;;;;;30.00;16.27;;;;;;;6.83;80.41;100504.03;5114535;28;20469;-64
2021/11/17 11:20:18;;;;;;;33.72;17.35;;;;;;;6.83;80.45;100504.94;5079239;28;20499;-64
2021/11/17 11:22:58;;;;;;;40.05;19.75;;;;;;;6.84;79.99;100498.06;5114094;28;20035;-64
2021/11/17 11:25:41;;;;;;;37.28;18.10;;;;;;;6.84;80.57;100501.53;5114851;28;20035;-64
2021/11/17 11:28:22;;;;;;;36.97;17.83;;;;;;;6.85;80.10;100498.13;5096148;28;20048;-64
2021/11/17 11:31:07;;;;;;;35.92;19.40;;;;;;;6.84;80.20;100493.81;5079136;28;20035;-65
2021/11/17 11:33:52;;;;;;;36.00;18.38;;;;;;;6.85;80.29;100494.69;5079774;28;20071;-64
2021/11/17 11:36:25;;;;;;;38.67;16.45;;;;;;;6.86;80.45;100499.00;5079179;28;20035;-64
2021/11/17 11:39:11;;;;;;;35.35;18.02;;;;;;;6.86;80.63;100492.13;5079183;28;20431;-65
2021/11/17 11:42:01;;;;;;;36.25;19.77;;;;;;;6.89;80.28;100490.50;5113217;28;20035;-64
2021/11/17 11:44:39;;;;;;;43.85;20.48;;;;;;;6.90;80.53;100493.16;5096101;28;20082;-64
2021/11/17 11:47:09;;;;;;;45.47;18.13;;;;;;;6.92;80.62;100495.78;5114102;28;20036;-64
2021/11/17 11:49:38;;;;;;;39.67;18.27;;;;;;;6.92;80.21;100498.38;5114433;28;20039;-64
2021/11/17 11:52:12;;;;;;;35.40;17.70;;;;;;;6.93;80.27;100495.84;5114013;28;20059;-64
2021/11/17 11:54:53;;;;;;;38.42;19.02;;;;;;;6.96;80.51;100497.66;5095651;28;20130;-64
2021/11/17 11:57:47;;;;;;;36.47;18.90;;;;;;;6.95;80.50;100499.34;5095924;28;20032;-65
2021/11/17 12:00:24;;;;;;;35.58;17.98;;;;;;;6.97;80.52;100505.44;5114381;28;20035;-64
2021/11/17 12:02:59;;;;;;;40.42;18.77;;;;;;;6.97;80.49;100502.00;5114403;28;20059;-64
2021/11/17 12:05:39;;;;;;;36.45;16.90;;;;;;;6.98;80.73;100501.19;5096405;28;20039;-64
2021/11/17 12:08:42;;;;;;;42.13;19.38;;;;;;;7.01;80.89;100501.28;5078792;28;20051;-65
2021/11/17 12:11:17;;;;;;;34.92;16.92;;;;;;;7.02;81.00;100500.47;5113604;28;20494;-64
2021/11/17 12:14:12;;;;;;;43.30;20.33;;;;;;;7.04;80.53;100501.41;5095634;28;20494;-65
2021/11/17 12:17:02;;;;;;;35.38;17.83;;;;;;;7.04;80.83;100503.13;5113594;28;20036;-64
2021/11/17 12:19:45;;;;;;;37.42;18.30;;;;;;;7.03;80.71;100499.63;5113750;28;20031;-65
2021/11/17 12:22:19;;;;;;;46.28;20.30;;;;;;;7.04;80.58;100508.25;5095637;28;20035;-65
2021/11/17 12:24:53;;;;;;;38.83;18.90;;;;;;;7.06;80.64;100514.34;5078664;28;20062;-65
2021/11/17 12:27:36;;;;;;;35.38;19.00;;;;;;;7.07;80.95;100518.69;5112374;28;20042;-64
2021/11/17 12:30:13;;;;;;;47.35;20.27;;;;;;;7.08;81.08;100512.72;5095832;28;20031;-64
2021/11/17 12:32:52;;;;;;;39.75;20.23;;;;;;;7.10;80.90;100511.06;5078746;28;20108;-64
2021/11/17 12:35:33;;;;;;;35.38;18.98;;;;;;;7.10;81.17;100519.69;5078436;28;20428;-64
2021/11/17 12:38:06;;;;;;;42.33;21.08;;;;;;;7.11;80.69;100515.38;5094809;28;20044;-65
2021/11/17 12:40:48;;;;;;;36.50;18.73;;;;;;;7.10;81.01;100511.94;5078909;28;20028;-65
2021/11/17 12:43:29;;;;;;;38.63;21.65;;;;;;;7.12;80.81;100522.31;5081292;28;20040;-65
2021/11/17 12:46:13;;;;;;;40.28;19.90;;;;;;;7.10;80.79;100517.09;5082001;28;20069;-64
2021/11/17 12:48:57;;;;;;;39.90;19.88;;;;;;;7.11;81.03;100523.13;5117653;28;20059;-64
2021/11/17 12:51:30;;;;;;;39.92;22.52;;;;;;;7.11;81.01;100526.59;5082312;28;20432;-65
2021/11/17 12:54:05;;;;;;;43.05;21.17;;;;;;;7.12;81.22;100525.78;5117112;28;20044;-65
2021/11/17 12:56:41;;;;;;;43.22;23.65;;;;;;;7.13;80.84;100527.53;5098723;28;20536;-65
2021/11/17 12:59:12;;;;;;;38.08;21.25;;;;;;;7.13;81.36;100527.53;5099282;28;20039;-65
2021/11/17 13:01:43;;;;;;;41.22;23.30;;;;;;;7.14;81.14;100531.88;5099126;28;20031;-65
2021/11/17 13:04:12;;;;;;;43.53;22.08;;;;;;;7.14;81.00;100524.13;5117185;28;20092;-65
2021/11/17 13:06:49;;;;;;;38.25;22.77;;;;;;;7.13;81.04;100532.69;5116944;28;20036;-65
2021/11/17 13:09:30;;;;;;;36.92;21.98;;;;;;;7.13;80.85;100526.63;5082552;28;20042;-65
2021/11/17 13:12:09;;;;;;;42.08;23.20;;;;;;;7.16;81.20;100534.50;5081499;28;20031;-65
2021/11/17 13:14:58;;;;;;;39.17;21.10;;;;;;;7.16;81.12;100534.50;5116740;28;20033;-65
2021/11/17 13:17:32;;;;;;;35.78;21.40;;;;;;;7.16;81.17;100531.91;5099273;28;20073;-64
2021/11/17 13:20:44;;;;;;;40.10;22.65;;;;;;;7.20;81.38;100538.97;5117254;28;20040;-65
2021/11/17 13:23:09;;;;;;;39.80;21.92;;;;;;;7.19;81.15;100538.88;5114661;28;20398;-64
2021/11/17 13:25:55;;;;;;;40.20;23.17;;;;;;;7.20;81.42;100543.22;5116535;28;20039;-65
2021/11/17 13:28:37;;;;;;;37.85;22.15;;;;;;;7.21;81.19;100550.13;5098589;28;20035;-64
2021/11/17 13:31:22;;;;;;;38.97;21.92;;;;;;;7.19;81.41;100550.09;5081677;28;20031;-65
2021/11/17 13:34:03;;;;;;;;;;;;;;;7.18;81.34;100547.44;5098663;28;20038;-64
2021/11/17 13:36:42;;;;;;;38.22;21.48;;;;;;;7.18;81.14;100544.84;5115106;28;19969;-65
2021/11/17 13:39:09;;;;;;;41.08;21.67;;;;;;;7.18;80.93;100548.31;5116659;28;20036;-64
2021/11/17 13:41:37;;;;;;;40.80;23.08;;;;;;;7.19;81.16;100542.34;5098234;28;20058;-65
2021/11/17 13:44:05;;;;;;;39.83;21.65;;;;;;;7.19;81.44;100546.63;5098416;28;20046;-65
2021/11/17 13:46:37;;;;;;;37.60;22.48;;;;;;;7.19;81.36;100539.78;5116149;28;20031;-64
2021/11/17 13:49:04;;;;;;;39.30;22.90;;;;;;;7.19;81.21;100547.50;5098514;28;20039;-64
2021/11/17 13:51:30;;;;;;;38.92;20.83;;;;;;;7.20;81.42;100551.84;5080936;28;20035;-64
2021/11/17 13:53:56;;;;;;;38.35;20.05;;;;;;;7.21;81.38;100553.59;5115939;28;20035;-64
2021/11/17 13:56:29;;;;;;;38.28;20.23;;;;;;;7.23;81.47;100559.69;5115723;28;20050;-64
2021/11/17 13:58:57;;;;;;;38.42;20.80;;;;;;;7.24;81.25;100560.56;5080987;28;20044;-65
2021/11/17 14:01:33;;;;;;;37.05;20.70;;;;;;;7.24;81.47;100556.28;5098363;28;20044;-65
2021/11/17 14:04:00;;;;;;;41.65;20.77;;;;;;;7.24;81.36;100561.44;5080931;28;20414;-65
2021/11/17 14:06:28;;;;;;;37.83;19.52;;;;;;;7.23;81.42;100562.28;5081060;28;20040;-65
2021/11/17 14:08:56;;;;;;;38.72;19.35;;;;;;;7.24;81.48;100566.59;5081140;28;20032;-65
2021/11/17 14:11:27;;;;;;;37.45;19.92;;;;;;;7.23;81.52;100564.84;5115538;28;20038;-65
2021/11/17 14:13:53;;;;;;;41.83;22.17;;;;;;;7.24;81.71;100564.00;5080076;28;20509;-65
2021/11/17 14:16:19;;;;;;;38.28;19.88;;;;;;;7.25;81.24;100567.47;5097166;28;20036;-65
2021/11/17 14:18:46;;;;;;;35.15;20.17;;;;;;;7.25;81.49;100562.31;5115595;28;20036;-65
2021/11/17 14:23:37;;;;;;;40.17;20.98;;;;;;;7.24;81.55;100566.59;5131957;27;20764;-65
2021/11/17 14:26:07;;;;;;;36.63;21.83;;;;;;;7.26;81.55;100574.41;5096447;28;20501;-65
2021/11/17 14:28:38;;;;;;;38.65;21.15;;;;;;;7.26;81.50;100569.25;5096250;28;20041;-64
2021/11/17 14:31:21;;;;;;;37.88;20.58;;;;;;;7.26;81.53;100576.97;5132037;28;20060;-65
2021/11/17 14:33:57;;;;;;;40.00;22.25;;;;;;;7.26;81.51;100567.53;5113576;28;20035;-64
2021/11/17 14:36:30;;;;;;;36.95;21.13;;;;;;;7.27;81.45;100569.28;5113496;28;20040;-64
2021/11/17 14:38:56;;;;;;;34.85;18.27;;;;;;;7.28;81.70;100573.63;5131667;28;20031;-63
2021/11/17 14:41:22;;;;;;;37.53;20.48;;;;;;;7.25;81.56;100570.06;5131527;28;20126;-63
2021/11/17 14:43:49;;;;;;;34.47;20.50;;;;;;;7.24;81.88;100566.59;5113269;28;20063;-63
2021/11/17 14:46:15;;;;;;;32.60;18.33;;;;;;;7.25;81.72;100567.47;5096457;28;20031;-63